createdAt,value
2019-02-25T00:00:17.363Z,80607.13
2019-02-25T00:02:46.528Z,80547.48
2019-02-25T00:05:16.098Z,80517.15
2019-02-25T00:07:45.297Z,80531.30
2019-02-25T00:10:14.474Z,80560.62
2019-02-25T00:12:43.777Z,80606.13
2019-02-25T00:15:13.511Z,80617.24
2019-02-25T00:17:42.673Z,80642.52
2019-02-25T00:20:12.420Z,80640.50
2019-02-25T00:22:41.853Z,80651.62
2019-02-25T00:25:11.759Z,80656.67
2019-02-25T00:27:40.939Z,80668.80
2019-02-25T00:30:10.334Z,80689.03
2019-02-25T00:32:39.539Z,80696.10
2019-02-25T00:35:09.049Z,80689.03
2019-02-25T00:37:38.545Z,80712.28
2019-02-25T00:40:09.228Z,80713.30
2019-02-25T00:42:38.809Z,80703.19
2019-02-25T00:45:09.035Z,80703.19
2019-02-25T00:47:38.192Z,80724.41
2019-02-25T00:50:09.656Z,80716.33
2019-02-25T00:52:38.852Z,80674.88
2019-02-25T00:55:09.145Z,80632.41
2019-02-25T00:57:38.451Z,80642.52
2019-02-25T01:00:11.330Z,80664.77
2019-02-25T01:02:40.801Z,80680.94
2019-02-25T01:05:10.000Z,80684.98
2019-02-25T01:07:39.709Z,80697.11
2019-02-25T01:10:10.021Z,80706.22
2019-02-25T01:12:39.605Z,80703.19
2019-02-25T01:15:09.210Z,80679.92
2019-02-25T01:17:38.892Z,80656.67
2019-02-25T01:20:11.151Z,80669.81
2019-02-25T01:22:40.516Z,80704.19
2019-02-25T01:25:10.131Z,80731.49
2019-02-25T01:27:39.299Z,80731.49
2019-02-25T01:30:10.754Z,80733.52
2019-02-25T01:32:39.950Z,80735.53
2019-02-25T01:35:10.768Z,80719.36
2019-02-25T01:37:40.259Z,80725.42
2019-02-25T01:40:10.303Z,80736.55
2019-02-25T01:42:39.879Z,80744.63
2019-02-25T01:45:10.725Z,80731.49
2019-02-25T01:47:40.193Z,80743.62
2019-02-25T01:50:10.276Z,80749.69
2019-02-25T01:52:39.822Z,80756.77
2019-02-25T01:55:09.417Z,80725.42
2019-02-25T01:57:38.656Z,80724.41
2019-02-25T02:00:11.577Z,80717.34
2019-02-25T02:02:40.747Z,80716.33
2019-02-25T02:05:10.214Z,80728.45
2019-02-25T02:07:39.725Z,80735.53
2019-02-25T02:10:12.449Z,80750.70
2019-02-25T02:12:41.631Z,80740.59
2019-02-25T02:15:13.704Z,80747.67
2019-02-25T02:17:43.034Z,80743.62
2019-02-25T02:20:14.225Z,80726.44
2019-02-25T02:22:44.232Z,80670.83
2019-02-25T02:25:13.750Z,80649.59
2019-02-25T02:27:43.260Z,80688.02
2019-02-25T02:30:15.081Z,80722.39
2019-02-25T02:32:44.399Z,80712.28
2019-02-25T02:35:13.583Z,80676.89
2019-02-25T02:37:42.765Z,80693.07
2019-02-25T02:40:13.389Z,80721.38
2019-02-25T02:42:44.756Z,80684.98
2019-02-25T02:45:41.395Z,80636.45
2019-02-25T02:48:16.915Z,80618.25
2019-02-25T02:50:46.129Z,80680.94
2019-02-25T02:53:16.151Z,80726.44
2019-02-25T02:55:45.282Z,80738.57
2019-02-25T02:58:14.454Z,80723.41
2019-02-25T03:00:43.615Z,80728.45
2019-02-25T03:03:12.886Z,80750.70
2019-02-25T03:05:44.243Z,80765.87
2019-02-25T03:08:13.465Z,80772.95
2019-02-25T03:10:42.603Z,80762.84
2019-02-25T03:13:12.305Z,80741.60
2019-02-25T03:15:41.453Z,80775.98
2019-02-25T03:18:10.691Z,80779.02
2019-02-25T03:20:39.871Z,80762.84
2019-02-25T03:23:09.031Z,80723.41
2019-02-25T03:25:38.762Z,80704.19
2019-02-25T03:28:07.952Z,80692.06
2019-02-25T03:30:37.100Z,80725.42
2019-02-25T03:33:06.670Z,80756.77
2019-02-25T03:35:36.178Z,80772.95
2019-02-25T03:38:05.529Z,80736.55
2019-02-25T03:40:34.695Z,80741.60
2019-02-25T03:43:03.842Z,80780.02
2019-02-25T03:45:33.056Z,80810.36
2019-02-25T03:48:02.604Z,80807.32
2019-02-25T03:50:32.031Z,80805.30
2019-02-25T03:53:01.601Z,80784.07
2019-02-25T03:55:30.992Z,80780.02
2019-02-25T03:58:00.818Z,80739.58
2019-02-25T04:00:30.435Z,80729.47
2019-02-25T04:02:59.610Z,80749.69
2019-02-25T04:05:28.941Z,80755.76
2019-02-25T04:07:58.117Z,80744.63
2019-02-25T04:10:27.610Z,80739.58
2019-02-25T04:12:57.244Z,80749.69
2019-02-25T04:15:32.040Z,80755.76
2019-02-25T04:18:01.795Z,80771.94
2019-02-25T04:20:30.965Z,80778.00
2019-02-25T04:23:00.211Z,80780.02
2019-02-25T04:25:29.867Z,80760.81
2019-02-25T04:27:59.406Z,80766.88
2019-02-25T04:30:31.241Z,80776.98
2019-02-25T04:33:00.429Z,80798.22
2019-02-25T04:35:30.735Z,80774.97
2019-02-25T04:37:59.922Z,80765.87
2019-02-25T04:40:29.207Z,80718.34
2019-02-25T04:42:58.700Z,80730.48
2019-02-25T04:45:27.841Z,80767.89
2019-02-25T04:47:57.061Z,80789.13
2019-02-25T04:50:26.321Z,80803.28
2019-02-25T04:52:57.538Z,80772.95
2019-02-25T04:55:26.742Z,80688.02
2019-02-25T04:57:56.129Z,80646.56
2019-02-25T05:00:25.349Z,80694.08
2019-02-25T05:02:54.945Z,80729.47
2019-02-25T05:05:24.701Z,80747.67
2019-02-25T05:07:54.257Z,80763.84
2019-02-25T05:10:24.175Z,80784.07
2019-02-25T05:13:01.261Z,80775.98
2019-02-25T05:15:30.750Z,80800.25
2019-02-25T05:18:00.767Z,80819.45
2019-02-25T05:20:29.928Z,80829.56
2019-02-25T05:22:59.527Z,80821.48
2019-02-25T05:25:29.102Z,80849.79
2019-02-25T05:27:58.337Z,80859.91
2019-02-25T05:30:27.806Z,80860.91
2019-02-25T05:32:57.604Z,80854.84
2019-02-25T05:35:26.811Z,80851.81
2019-02-25T05:37:56.299Z,80854.84
2019-02-25T05:40:25.461Z,80826.53
2019-02-25T05:42:55.027Z,80811.37
2019-02-25T05:45:25.999Z,80814.41
2019-02-25T05:47:55.600Z,80832.60
2019-02-25T05:50:25.062Z,80828.55
2019-02-25T05:52:54.253Z,80814.41
2019-02-25T05:55:23.495Z,80806.31
2019-02-25T05:57:52.729Z,80802.27
2019-02-25T06:00:24.159Z,80800.25
2019-02-25T06:02:53.741Z,80809.34
2019-02-25T06:05:23.204Z,80840.69
2019-02-25T06:07:53.036Z,80850.80
2019-02-25T06:10:22.370Z,80865.97
2019-02-25T06:12:51.855Z,80856.87
2019-02-25T06:15:23.743Z,80860.91
2019-02-25T06:17:53.219Z,80861.92
2019-02-25T06:20:22.574Z,80850.80
2019-02-25T06:22:52.227Z,80844.73
2019-02-25T06:25:21.665Z,80870.02
2019-02-25T06:27:50.836Z,80878.09
2019-02-25T06:30:20.095Z,80859.91
2019-02-25T06:32:49.311Z,80861.92
2019-02-25T06:35:18.602Z,80862.94
2019-02-25T06:37:48.075Z,80865.97
2019-02-25T06:40:17.650Z,80854.84
2019-02-25T06:42:46.982Z,80852.82
2019-02-25T06:45:17.660Z,80833.61
2019-02-25T06:47:46.861Z,80820.47
2019-02-25T06:50:16.399Z,80827.55
2019-02-25T06:52:45.595Z,80843.72
2019-02-25T06:55:15.391Z,80853.83
2019-02-25T06:57:44.600Z,80845.75
2019-02-25T07:00:16.366Z,80841.70
2019-02-25T07:02:48.427Z,80839.67
2019-02-25T07:05:22.984Z,80830.58
2019-02-25T07:07:55.386Z,80829.56
2019-02-25T07:10:42.497Z,80814.41
2019-02-25T07:13:37.671Z,80819.45
2019-02-25T07:16:21.467Z,80807.32
2019-02-25T07:19:09.903Z,80805.30
2019-02-25T07:21:50.419Z,80771.94
2019-02-25T07:24:26.067Z,80742.61
2019-02-25T07:27:20.218Z,80720.37
2019-02-25T07:30:17.436Z,80706.22
2019-02-25T07:33:17.855Z,80710.27
2019-02-25T07:36:06.135Z,80711.27
2019-02-25T07:39:03.771Z,80690.04
2019-02-25T07:41:58.477Z,80674.88
2019-02-25T07:44:50.566Z,80643.53
2019-02-25T07:47:31.181Z,80621.28
2019-02-25T07:50:19.340Z,80606.13
2019-02-25T07:52:58.075Z,80575.79
2019-02-25T07:55:43.246Z,80558.60
2019-02-25T07:58:17.389Z,80532.31
2019-02-25T08:01:00.438Z,80516.14
2019-02-25T08:03:51.362Z,80490.86
2019-02-25T08:06:28.391Z,80459.52
2019-02-25T08:09:09.106Z,80423.13
2019-02-25T08:11:51.706Z,80413.02
2019-02-25T08:14:38.572Z,80379.66
2019-02-25T08:17:17.683Z,80364.48
2019-02-25T08:20:03.618Z,80341.23
2019-02-25T08:22:57.945Z,80336.18
2019-02-25T08:25:37.684Z,80309.89
2019-02-25T08:28:24.663Z,80303.83
2019-02-25T08:31:12.686Z,80283.61
2019-02-25T08:34:18.121Z,80257.33
2019-02-25T08:37:18.677Z,80236.09
2019-02-25T08:40:06.541Z,80225.98
2019-02-25T08:42:45.340Z,80224.98
2019-02-25T08:45:25.368Z,80209.81
2019-02-25T08:48:08.333Z,80187.56
2019-02-25T08:50:37.554Z,80178.47
2019-02-25T08:53:07.047Z,80132.98
2019-02-25T08:55:36.268Z,80115.80
2019-02-25T08:58:05.460Z,80115.80
2019-02-25T09:00:34.670Z,80095.58
2019-02-25T09:03:04.234Z,80098.61
2019-02-25T09:05:33.466Z,80072.33
2019-02-25T09:08:03.084Z,80042.00
2019-02-25T09:10:32.264Z,80039.97
2019-02-25T09:13:02.516Z,80028.86
2019-02-25T09:15:32.553Z,80004.59
2019-02-25T09:18:00.258Z,79994.48
2019-02-25T09:20:30.086Z,79993.47
2019-02-25T09:22:59.299Z,79981.34
2019-02-25T09:25:29.785Z,79958.09
2019-02-25T09:27:59.651Z,79967.19
2019-02-25T09:30:29.126Z,79932.82
2019-02-25T09:32:58.721Z,79913.61
2019-02-25T09:35:27.958Z,79919.68
2019-02-25T09:37:58.033Z,79902.50
2019-02-25T09:40:27.530Z,79860.04
2019-02-25T09:42:57.236Z,79814.55
2019-02-25T09:45:26.448Z,79780.19
2019-02-25T09:47:55.621Z,79778.16
2019-02-25T09:50:25.191Z,79778.16
2019-02-25T09:52:54.442Z,79774.12
2019-02-25T09:55:24.073Z,79770.08
2019-02-25T09:57:53.639Z,79775.13
2019-02-25T10:00:22.824Z,79775.13
2019-02-25T10:02:52.023Z,79761.98
2019-02-25T10:05:23.035Z,79760.98
2019-02-25T10:07:52.248Z,79787.26
2019-02-25T10:10:21.458Z,79783.22
2019-02-25T10:12:51.219Z,79757.94
2019-02-25T10:15:20.458Z,79758.95
2019-02-25T10:17:49.631Z,79748.84
2019-02-25T10:20:19.173Z,79737.73
2019-02-25T10:22:48.661Z,79719.53
2019-02-25T10:25:19.204Z,79703.36
2019-02-25T10:27:49.781Z,79682.13
2019-02-25T10:30:19.300Z,79672.02
2019-02-25T10:32:51.641Z,79684.16
2019-02-25T10:35:21.315Z,79675.05
2019-02-25T10:37:50.803Z,79683.14
2019-02-25T10:40:24.051Z,79657.88
2019-02-25T10:42:50.891Z,79640.69
2019-02-25T10:45:20.463Z,79613.40
2019-02-25T10:47:51.669Z,79618.45
2019-02-25T10:50:22.265Z,79611.38
2019-02-25T10:52:51.752Z,79536.58
2019-02-25T10:55:37.325Z,79537.59
2019-02-25T10:58:07.417Z,79523.44
2019-02-25T11:00:37.811Z,79511.31
2019-02-25T11:03:10.559Z,79491.09
2019-02-25T11:05:41.497Z,79483.00
2019-02-25T11:08:13.890Z,79483.00
2019-02-25T11:10:56.318Z,79473.91
2019-02-25T11:13:27.449Z,79464.81
2019-02-25T11:15:57.447Z,79461.78
2019-02-25T11:18:28.384Z,79433.48
2019-02-25T11:20:58.987Z,79436.52
2019-02-25T11:23:29.109Z,79424.38
2019-02-25T11:26:00.072Z,79394.06
2019-02-25T11:28:29.595Z,79382.94
2019-02-25T11:30:59.202Z,79372.84
2019-02-25T11:33:30.268Z,79366.77
2019-02-25T11:35:59.660Z,79378.90
2019-02-25T11:38:30.521Z,79374.86
2019-02-25T11:41:01.932Z,79349.59
2019-02-25T11:43:31.311Z,79351.61
2019-02-25T11:46:00.507Z,79338.47
2019-02-25T11:48:30.476Z,79349.59
2019-02-25T11:50:59.749Z,79332.41
2019-02-25T11:53:30.411Z,79332.41
2019-02-25T11:55:59.598Z,79298.04
2019-02-25T11:58:28.850Z,79284.91
2019-02-25T12:00:58.389Z,79277.83
2019-02-25T12:03:27.896Z,79312.19
2019-02-25T12:05:57.710Z,79325.33
2019-02-25T12:08:27.237Z,79306.13
2019-02-25T12:10:56.426Z,79301.08
2019-02-25T12:13:25.950Z,79304.11
2019-02-25T12:15:55.147Z,79276.81
2019-02-25T12:18:24.337Z,79256.60
2019-02-25T12:20:54.269Z,79264.69
2019-02-25T12:23:23.557Z,79257.61
2019-02-25T12:25:53.551Z,79250.54
2019-02-25T12:28:23.059Z,79234.37
2019-02-25T12:30:53.003Z,79233.36
2019-02-25T12:33:22.485Z,79237.40
2019-02-25T12:35:52.097Z,79222.23
2019-02-25T12:38:21.903Z,79226.28
2019-02-25T12:40:51.128Z,79234.37
2019-02-25T12:43:21.052Z,79238.41
2019-02-25T12:45:50.532Z,79219.20
2019-02-25T12:48:19.701Z,79191.92
2019-02-25T12:50:49.442Z,79207.08
2019-02-25T12:53:18.672Z,79188.89
2019-02-25T12:55:47.832Z,79181.81
2019-02-25T12:58:17.216Z,79178.78
2019-02-25T13:00:46.384Z,79168.67
2019-02-25T13:03:16.248Z,79146.44
2019-02-25T13:05:45.485Z,79140.38
2019-02-25T13:08:15.374Z,79155.53
2019-02-25T13:10:44.876Z,79169.69
2019-02-25T13:13:14.384Z,79148.45
2019-02-25T13:15:44.168Z,79138.35
2019-02-25T13:18:13.799Z,79123.19
2019-02-25T13:20:43.361Z,79107.02
2019-02-25T13:23:12.577Z,79109.05
2019-02-25T13:25:41.774Z,79125.22
2019-02-25T13:28:11.363Z,79131.28
2019-02-25T13:30:40.572Z,79126.22
2019-02-25T13:33:09.790Z,79115.11
2019-02-25T13:35:39.390Z,79094.89
2019-02-25T13:38:08.952Z,79110.05
2019-02-25T13:40:38.333Z,79122.18
2019-02-25T13:43:07.865Z,79130.27
2019-02-25T13:45:37.068Z,79126.22
2019-02-25T13:48:07.980Z,79131.28
2019-02-25T13:50:37.187Z,79076.70
2019-02-25T13:53:06.351Z,79047.39
2019-02-25T13:55:35.617Z,79038.30
2019-02-25T13:58:07.754Z,79020.11
2019-02-25T14:00:36.993Z,79015.05
2019-02-25T14:03:07.992Z,79014.05
2019-02-25T14:05:39.389Z,78996.86
2019-02-25T14:08:10.185Z,79001.91
2019-02-25T14:10:39.402Z,78998.88
2019-02-25T14:13:08.556Z,79005.95
2019-02-25T14:15:40.230Z,79017.08
2019-02-25T14:18:09.780Z,79018.08
2019-02-25T14:20:40.389Z,79010.00
2019-02-25T14:23:09.624Z,79008.98
2019-02-25T14:25:41.572Z,79002.92
2019-02-25T14:28:10.047Z,78997.88
2019-02-25T14:30:39.508Z,79005.95
2019-02-25T14:33:09.119Z,79003.94
2019-02-25T14:35:38.320Z,79011.02
2019-02-25T14:38:10.412Z,79021.11
2019-02-25T14:40:39.728Z,79011.02
2019-02-25T14:43:12.672Z,79003.94
2019-02-25T14:45:41.899Z,78999.89
2019-02-25T14:48:15.482Z,79001.91
2019-02-25T14:50:44.249Z,78992.81
2019-02-25T14:53:15.262Z,78985.74
2019-02-25T14:55:46.826Z,78989.78
2019-02-25T14:58:17.569Z,78995.84
2019-02-25T15:00:47.361Z,78997.88
2019-02-25T15:03:17.849Z,78993.83
2019-02-25T15:05:49.841Z,78990.80
2019-02-25T15:08:21.900Z,78990.80
2019-02-25T15:10:55.543Z,78992.81
2019-02-25T15:13:26.540Z,79002.92
2019-02-25T15:15:56.697Z,79003.94
2019-02-25T15:18:27.048Z,79017.08
2019-02-25T15:20:58.538Z,79016.06
2019-02-25T15:23:30.816Z,79014.05
2019-02-25T15:26:05.207Z,79021.11
2019-02-25T15:28:32.784Z,79036.28
2019-02-25T15:31:04.509Z,79032.23
2019-02-25T15:33:33.647Z,79039.31
2019-02-25T15:36:03.968Z,79006.97
2019-02-25T15:38:34.859Z,79031.22
2019-02-25T15:41:05.002Z,79041.33
2019-02-25T15:43:35.395Z,79054.47
2019-02-25T15:46:05.210Z,79056.48
2019-02-25T15:48:34.942Z,79047.39
2019-02-25T15:51:05.596Z,79054.47
2019-02-25T15:53:35.801Z,79063.56
2019-02-25T15:56:06.465Z,79067.61
2019-02-25T15:58:36.781Z,79073.67
2019-02-25T16:01:06.003Z,79070.64
2019-02-25T16:03:36.773Z,79082.77
2019-02-25T16:06:08.351Z,79088.83
2019-02-25T16:08:39.423Z,79117.13
2019-02-25T16:11:09.166Z,79112.08
2019-02-25T16:13:38.385Z,79137.34
2019-02-25T16:16:09.532Z,79125.22
2019-02-25T16:18:40.470Z,79133.30
2019-02-25T16:21:11.216Z,79158.56
2019-02-25T16:23:43.190Z,79167.66
2019-02-25T16:26:13.570Z,79187.88
2019-02-25T16:28:44.273Z,79215.16
2019-02-25T16:31:14.850Z,79227.30
2019-02-25T16:33:44.185Z,79238.41
2019-02-25T16:36:13.723Z,79267.72
2019-02-25T16:38:43.334Z,79266.71
2019-02-25T16:41:12.605Z,79282.88
2019-02-25T16:43:42.582Z,79298.04
2019-02-25T16:46:14.058Z,79329.38
2019-02-25T16:48:46.787Z,79358.69
2019-02-25T16:51:17.187Z,79380.92
2019-02-25T16:53:50.481Z,79414.28
2019-02-25T16:56:18.279Z,79426.41
2019-02-25T16:58:49.866Z,79452.69
2019-02-25T17:01:19.661Z,79468.86
2019-02-25T17:03:49.255Z,79489.07
2019-02-25T17:06:18.515Z,79517.38
2019-02-25T17:08:48.863Z,79549.72
2019-02-25T17:11:20.118Z,79586.11
2019-02-25T17:13:49.941Z,79598.23
2019-02-25T17:16:23.527Z,79619.46
2019-02-25T17:18:50.138Z,79636.64
2019-02-25T17:21:19.492Z,79650.80
2019-02-25T17:23:48.722Z,79663.94
2019-02-25T17:26:19.642Z,79682.13
2019-02-25T17:28:49.005Z,79687.19
2019-02-25T17:31:18.679Z,79710.44
2019-02-25T17:33:49.242Z,79719.53
2019-02-25T17:36:19.166Z,79737.73
2019-02-25T17:38:50.173Z,79761.98
2019-02-25T17:41:20.156Z,79781.19
2019-02-25T17:43:49.465Z,79776.14
2019-02-25T17:46:19.315Z,79776.14
2019-02-25T17:48:48.527Z,79775.13
2019-02-25T17:51:19.076Z,79758.95
2019-02-25T17:53:50.401Z,79750.87
2019-02-25T17:56:22.043Z,79774.12
2019-02-25T17:58:51.165Z,79803.43
2019-02-25T18:01:22.005Z,79824.66
2019-02-25T18:03:53.182Z,79840.83
2019-02-25T18:06:26.954Z,79870.14
2019-02-25T18:08:55.398Z,79853.97
2019-02-25T18:11:25.590Z,79874.19
2019-02-25T18:13:57.840Z,79846.89
2019-02-25T18:16:28.055Z,79851.95
2019-02-25T18:18:57.313Z,79860.04
2019-02-25T18:21:28.919Z,79875.20
2019-02-25T18:23:59.278Z,79903.50
2019-02-25T18:26:31.105Z,79910.58
2019-02-25T18:29:01.347Z,79897.44
2019-02-25T18:31:31.251Z,79926.75
2019-02-25T18:34:00.464Z,79942.93
2019-02-25T18:36:31.124Z,79962.14
2019-02-25T18:39:00.882Z,79981.34
2019-02-25T18:41:33.808Z,79997.52
2019-02-25T18:44:01.654Z,79994.48
2019-02-25T18:46:30.820Z,80002.57
2019-02-25T18:49:05.127Z,80002.57
2019-02-25T18:51:35.851Z,80006.62
2019-02-25T18:54:05.719Z,79991.45
2019-02-25T18:56:35.793Z,80013.69
2019-02-25T18:59:11.239Z,80020.77
2019-02-25T19:01:37.429Z,80022.79
2019-02-25T19:04:06.601Z,80030.87
2019-02-25T19:06:37.162Z,80039.97
2019-02-25T19:09:07.558Z,80045.03
2019-02-25T19:11:36.994Z,80049.08
2019-02-25T19:14:07.510Z,80039.97
2019-02-25T19:16:38.041Z,80030.87
2019-02-25T19:19:07.979Z,80042.00
2019-02-25T19:21:38.863Z,80052.11
2019-02-25T19:24:09.891Z,80053.12
2019-02-25T19:26:42.563Z,80086.48
2019-02-25T19:29:15.294Z,80088.50
2019-02-25T19:31:45.632Z,80069.30
2019-02-25T19:34:16.309Z,80073.34
2019-02-25T19:36:47.013Z,80062.22
2019-02-25T19:39:19.799Z,80072.33
2019-02-25T19:41:49.250Z,80093.55
2019-02-25T19:44:21.188Z,80103.66
2019-02-25T19:46:53.842Z,80093.55
2019-02-25T19:49:22.823Z,80092.55
2019-02-25T19:51:52.785Z,80090.52
2019-02-25T19:54:22.625Z,80079.41
2019-02-25T19:56:53.762Z,80066.26
2019-02-25T19:59:26.264Z,80069.30
2019-02-25T20:01:55.337Z,80079.41
2019-02-25T20:04:24.636Z,80079.41
2019-02-25T20:06:55.646Z,80100.63
2019-02-25T20:09:24.889Z,80129.95
2019-02-25T20:11:54.126Z,80159.27
2019-02-25T20:14:23.474Z,80163.30
2019-02-25T20:16:53.849Z,80170.38
2019-02-25T20:19:23.768Z,80160.27
2019-02-25T20:21:54.697Z,80122.87
2019-02-25T20:24:25.745Z,80108.72
2019-02-25T20:26:57.834Z,80129.95
2019-02-25T20:29:26.074Z,80150.16
2019-02-25T20:31:55.953Z,80161.28
2019-02-25T20:34:27.690Z,80167.35
2019-02-25T20:36:59.900Z,80178.47
2019-02-25T20:39:29.378Z,80180.49
2019-02-25T20:41:59.121Z,80180.49
2019-02-25T20:44:33.096Z,80180.49
2019-02-25T20:47:04.137Z,80170.38
2019-02-25T20:49:34.660Z,80189.59
2019-02-25T20:52:04.401Z,80192.63
2019-02-25T20:54:37.942Z,80208.80
2019-02-25T20:57:08.434Z,80208.80
2019-02-25T20:59:37.719Z,80206.78
2019-02-25T21:02:13.654Z,80191.61
2019-02-25T21:04:38.765Z,80170.38
2019-02-25T21:07:11.472Z,80132.98
2019-02-25T21:09:42.159Z,80174.42
2019-02-25T21:12:13.227Z,80203.75
2019-02-25T21:14:43.228Z,80219.92
2019-02-25T21:17:13.970Z,80222.95
2019-02-25T21:19:44.237Z,80235.08
2019-02-25T21:22:15.480Z,80237.11
2019-02-25T21:24:45.023Z,80245.19
2019-02-25T21:27:15.674Z,80245.19
2019-02-25T21:29:45.173Z,80241.15
2019-02-25T21:32:17.252Z,80259.34
2019-02-25T21:34:52.570Z,80259.34
2019-02-25T21:37:20.454Z,80260.36
2019-02-25T21:39:50.673Z,80269.45
2019-02-25T21:42:22.273Z,80287.66
2019-02-25T21:44:52.560Z,80304.84
2019-02-25T21:47:23.823Z,80278.55
2019-02-25T21:49:54.988Z,80239.13
2019-02-25T21:52:24.951Z,80235.08
2019-02-25T21:54:54.759Z,80245.19
2019-02-25T21:57:24.102Z,80252.27
2019-02-25T21:59:54.708Z,80248.23
2019-02-25T22:02:24.816Z,80277.55
2019-02-25T22:04:54.125Z,80293.72
2019-02-25T22:07:26.664Z,80307.88
2019-02-25T22:09:54.757Z,80288.66
2019-02-25T22:12:23.983Z,80306.86
2019-02-25T22:14:53.242Z,80312.93
2019-02-25T22:17:24.562Z,80309.89
2019-02-25T22:19:54.552Z,80279.56
2019-02-25T22:22:26.191Z,80279.56
2019-02-25T22:24:54.909Z,80289.67
2019-02-25T22:27:24.517Z,80275.52
2019-02-25T22:29:53.695Z,80284.63
2019-02-25T22:32:23.121Z,80298.77
2019-02-25T22:34:52.294Z,80326.07
2019-02-25T22:37:22.614Z,80331.13
2019-02-25T22:39:54.541Z,80312.93
2019-02-25T22:42:28.994Z,80314.95
2019-02-25T22:44:58.607Z,80326.07
2019-02-25T22:47:27.769Z,80310.91
2019-02-25T22:49:56.975Z,80299.78
2019-02-25T22:52:27.224Z,80268.45
2019-02-25T22:54:57.092Z,80234.07
2019-02-25T22:59:56.483Z,80207.79
2019-02-25T23:02:28.061Z,80206.78
2019-02-25T23:04:57.666Z,80240.14
2019-02-25T23:07:26.847Z,80275.52
2019-02-25T23:09:56.056Z,80302.81
2019-02-25T23:12:28.462Z,80290.69
2019-02-25T23:14:58.777Z,80271.48
2019-02-25T23:17:31.067Z,80213.86
2019-02-25T23:20:00.157Z,80254.30
2019-02-25T23:22:30.196Z,80286.64
2019-02-25T23:25:00.959Z,80311.92
2019-02-25T23:27:32.151Z,80343.26
2019-02-25T23:30:01.301Z,80356.40
2019-02-25T23:32:31.973Z,80362.47
2019-02-25T23:35:01.188Z,80370.55
2019-02-25T23:37:30.431Z,80360.45
2019-02-25T23:40:02.163Z,80341.23
2019-02-25T23:42:33.036Z,80300.80
2019-02-25T23:45:02.236Z,80302.81
2019-02-25T23:47:33.379Z,80290.69
2019-02-25T23:50:04.165Z,80291.70
2019-02-25T23:52:35.459Z,80300.80
2019-02-25T23:55:05.622Z,80310.91
2019-02-25T23:57:35.372Z,80309.89
